sensor_id;sensor_type;location;lat;lon;timestamp;P1;durP1;ratioP1;P2;durP2;ratioP2
2558;SDS011;1289;53.488;10.006;2024-03-02T00:00:48;25.23;;;18.97;;
2558;SDS011;1289;53.488;10.006;2024-03-02T00:03:15;25.27;;;19.00;;
2558;SDS011;1289;53.488;10.006;2024-03-02T00:05:42;24.57;;;18.50;;
2558;SDS011;1289;53.488;10.006;2024-03-02T00:08:08;22.27;;;18.43;;
2558;SDS011;1289;53.488;10.006;2024-03-02T00:10:36;23.40;;;19.17;;
2558;SDS011;1289;53.488;10.006;2024-03-02T00:13:05;25.07;;;18.83;;
2558;SDS011;1289;53.488;10.006;2024-03-02T00:15:41;26.27;;;18.90;;
2558;SDS011;1289;53.488;10.006;2024-03-02T00:18:10;28.17;;;19.37;;
2558;SDS011;1289;53.488;10.006;2024-03-02T00:20:38;27.37;;;21.03;;
2558;SDS011;1289;53.488;10.006;2024-03-02T00:23:06;24.67;;;19.60;;
2558;SDS011;1289;53.488;10.006;2024-03-02T00:25:36;29.33;;;19.53;;
2558;SDS011;1289;53.488;10.006;2024-03-02T00:28:04;27.83;;;20.77;;
2558;SDS011;1289;53.488;10.006;2024-03-02T00:30:50;30.37;;;21.07;;
2558;SDS011;1289;53.488;10.006;2024-03-02T00:33:19;30.93;;;21.53;;
2558;SDS011;1289;53.488;10.006;2024-03-02T00:35:48;30.00;;;19.63;;
2558;SDS011;1289;53.488;10.006;2024-03-02T00:38:15;29.40;;;21.67;;
2558;SDS011;1289;53.488;10.006;2024-03-02T00:40:42;28.23;;;21.87;;
2558;SDS011;1289;53.488;10.006;2024-03-02T00:43:11;26.13;;;20.73;;
2558;SDS011;1289;53.488;10.006;2024-03-02T00:45:59;32.93;;;21.40;;
2558;SDS011;1289;53.488;10.006;2024-03-02T00:48:26;32.03;;;22.90;;
2558;SDS011;1289;53.488;10.006;2024-03-02T00:50:53;32.60;;;23.67;;
2558;SDS011;1289;53.488;10.006;2024-03-02T00:53:20;40.37;;;24.90;;
2558;SDS011;1289;53.488;10.006;2024-03-02T00:55:50;35.87;;;23.83;;
2558;SDS011;1289;53.488;10.006;2024-03-02T00:58:17;37.40;;;25.17;;
2558;SDS011;1289;53.488;10.006;2024-03-02T01:00:44;33.97;;;24.33;;
2558;SDS011;1289;53.488;10.006;2024-03-02T01:03:12;41.77;;;26.47;;
2558;SDS011;1289;53.488;10.006;2024-03-02T01:05:40;41.27;;;27.90;;
2558;SDS011;1289;53.488;10.006;2024-03-02T01:08:07;35.07;;;25.73;;
2558;SDS011;1289;53.488;10.006;2024-03-02T01:10:34;41.43;;;26.53;;
2558;SDS011;1289;53.488;10.006;2024-03-02T01:13:01;39.73;;;25.77;;
2558;SDS011;1289;53.488;10.006;2024-03-02T01:15:27;41.53;;;27.40;;
2558;SDS011;1289;53.488;10.006;2024-03-02T01:17:54;38.50;;;26.73;;
2558;SDS011;1289;53.488;10.006;2024-03-02T01:20:22;39.93;;;27.23;;
2558;SDS011;1289;53.488;10.006;2024-03-02T01:22:50;44.37;;;28.27;;
2558;SDS011;1289;53.488;10.006;2024-03-02T01:25:17;44.40;;;30.00;;
2558;SDS011;1289;53.488;10.006;2024-03-02T01:27:44;50.17;;;29.70;;
2558;SDS011;1289;53.488;10.006;2024-03-02T01:30:11;41.20;;;25.10;;
2558;SDS011;1289;53.488;10.006;2024-03-02T01:32:37;47.87;;;29.07;;
2558;SDS011;1289;53.488;10.006;2024-03-02T01:35:07;43.63;;;29.53;;
2558;SDS011;1289;53.488;10.006;2024-03-02T01:37:35;43.93;;;28.57;;
2558;SDS011;1289;53.488;10.006;2024-03-02T01:40:02;44.27;;;30.83;;
2558;SDS011;1289;53.488;10.006;2024-03-02T01:42:34;40.17;;;27.93;;
2558;SDS011;1289;53.488;10.006;2024-03-02T01:45:01;40.07;;;26.50;;
2558;SDS011;1289;53.488;10.006;2024-03-02T01:47:28;51.60;;;30.73;;
2558;SDS011;1289;53.488;10.006;2024-03-02T01:49:55;50.70;;;28.50;;
2558;SDS011;1289;53.488;10.006;2024-03-02T01:52:22;36.37;;;26.40;;
2558;SDS011;1289;53.488;10.006;2024-03-02T01:54:50;43.30;;;28.90;;
2558;SDS011;1289;53.488;10.006;2024-03-02T01:57:16;44.73;;;28.10;;
2558;SDS011;1289;53.488;10.006;2024-03-02T01:59:43;38.90;;;26.80;;
2558;SDS011;1289;53.488;10.006;2024-03-02T02:02:12;46.67;;;29.60;;
2558;SDS011;1289;53.488;10.006;2024-03-02T02:04:39;41.97;;;28.33;;
2558;SDS011;1289;53.488;10.006;2024-03-02T02:07:06;46.67;;;28.20;;
2558;SDS011;1289;53.488;10.006;2024-03-02T02:09:33;34.47;;;26.97;;
2558;SDS011;1289;53.488;10.006;2024-03-02T02:12:02;41.53;;;28.00;;
2558;SDS011;1289;53.488;10.006;2024-03-02T02:14:31;44.40;;;26.97;;
2558;SDS011;1289;53.488;10.006;2024-03-02T02:16:58;42.17;;;29.30;;
2558;SDS011;1289;53.488;10.006;2024-03-02T02:19:25;40.33;;;28.67;;
2558;SDS011;1289;53.488;10.006;2024-03-02T02:21:53;42.77;;;30.20;;
2558;SDS011;1289;53.488;10.006;2024-03-02T02:24:20;42.07;;;28.93;;
2558;SDS011;1289;53.488;10.006;2024-03-02T02:26:47;45.10;;;28.63;;
2558;SDS011;1289;53.488;10.006;2024-03-02T02:29:13;41.70;;;28.13;;
2558;SDS011;1289;53.488;10.006;2024-03-02T02:31:40;46.13;;;29.57;;
2558;SDS011;1289;53.488;10.006;2024-03-02T02:34:07;44.27;;;28.13;;
2558;SDS011;1289;53.488;10.006;2024-03-02T02:36:35;45.80;;;27.87;;
2558;SDS011;1289;53.488;10.006;2024-03-02T02:39:05;39.03;;;26.20;;
2558;SDS011;1289;53.488;10.006;2024-03-02T02:41:36;46.10;;;29.00;;
2558;SDS011;1289;53.488;10.006;2024-03-02T02:44:04;40.30;;;29.30;;
2558;SDS011;1289;53.488;10.006;2024-03-02T02:46:30;41.93;;;29.60;;
2558;SDS011;1289;53.488;10.006;2024-03-02T02:48:57;39.70;;;27.07;;
2558;SDS011;1289;53.488;10.006;2024-03-02T02:51:24;47.77;;;28.37;;
2558;SDS011;1289;53.488;10.006;2024-03-02T02:53:54;41.00;;;29.10;;
2558;SDS011;1289;53.488;10.006;2024-03-02T02:56:23;48.67;;;28.43;;
2558;SDS011;1289;53.488;10.006;2024-03-02T02:58:50;47.33;;;30.80;;
2558;SDS011;1289;53.488;10.006;2024-03-02T03:01:17;50.83;;;32.47;;
2558;SDS011;1289;53.488;10.006;2024-03-02T03:03:44;40.77;;;28.33;;
2558;SDS011;1289;53.488;10.006;2024-03-02T03:06:11;48.00;;;29.00;;
2558;SDS011;1289;53.488;10.006;2024-03-02T03:08:37;46.57;;;28.87;;
2558;SDS011;1289;53.488;10.006;2024-03-02T03:11:04;44.37;;;28.83;;
2558;SDS011;1289;53.488;10.006;2024-03-02T03:13:33;45.10;;;30.83;;
2558;SDS011;1289;53.488;10.006;2024-03-02T03:16:00;45.23;;;30.53;;
2558;SDS011;1289;53.488;10.006;2024-03-02T03:18:27;49.60;;;30.13;;
2558;SDS011;1289;53.488;10.006;2024-03-02T03:20:53;46.77;;;27.53;;
2558;SDS011;1289;53.488;10.006;2024-03-02T03:23:20;44.77;;;29.80;;
2558;SDS011;1289;53.488;10.006;2024-03-02T03:25:47;47.43;;;29.33;;
2558;SDS011;1289;53.488;10.006;2024-03-02T03:28:14;46.43;;;29.23;;
2558;SDS011;1289;53.488;10.006;2024-03-02T03:30:42;43.70;;;30.67;;
2558;SDS011;1289;53.488;10.006;2024-03-02T03:33:09;48.60;;;30.53;;
2558;SDS011;1289;53.488;10.006;2024-03-02T03:35:36;51.63;;;30.63;;
2558;SDS011;1289;53.488;10.006;2024-03-02T03:38:03;44.77;;;30.57;;
2558;SDS011;1289;53.488;10.006;2024-03-02T03:40:30;46.07;;;29.60;;
2558;SDS011;1289;53.488;10.006;2024-03-02T03:42:57;42.60;;;28.33;;
2558;SDS011;1289;53.488;10.006;2024-03-02T03:45:25;43.77;;;29.93;;
2558;SDS011;1289;53.488;10.006;2024-03-02T03:47:53;44.73;;;29.10;;
2558;SDS011;1289;53.488;10.006;2024-03-02T03:50:20;49.00;;;29.77;;
2558;SDS011;1289;53.488;10.006;2024-03-02T03:52:47;40.93;;;30.13;;
2558;SDS011;1289;53.488;10.006;2024-03-02T03:55:13;47.40;;;28.67;;
2558;SDS011;1289;53.488;10.006;2024-03-02T03:57:40;44.53;;;30.07;;
2558;SDS011;1289;53.488;10.006;2024-03-02T04:00:07;44.87;;;29.13;;
2558;SDS011;1289;53.488;10.006;2024-03-02T04:02:39;38.87;;;28.60;;
2558;SDS011;1289;53.488;10.006;2024-03-02T04:05:07;44.90;;;30.63;;
2558;SDS011;1289;53.488;10.006;2024-03-02T04:07:36;45.40;;;28.00;;
2558;SDS011;1289;53.488;10.006;2024-03-02T04:10:06;47.63;;;28.57;;
2558;SDS011;1289;53.488;10.006;2024-03-02T04:12:37;44.80;;;30.00;;
2558;SDS011;1289;53.488;10.006;2024-03-02T04:15:04;43.07;;;29.87;;
2558;SDS011;1289;53.488;10.006;2024-03-02T04:17:32;43.60;;;29.80;;
2558;SDS011;1289;53.488;10.006;2024-03-02T04:20:00;48.27;;;30.53;;
2558;SDS011;1289;53.488;10.006;2024-03-02T04:22:32;45.07;;;30.27;;
2558;SDS011;1289;53.488;10.006;2024-03-02T04:24:59;44.30;;;29.70;;
2558;SDS011;1289;53.488;10.006;2024-03-02T04:27:26;47.27;;;30.20;;
2558;SDS011;1289;53.488;10.006;2024-03-02T04:29:52;43.93;;;29.47;;
2558;SDS011;1289;53.488;10.006;2024-03-02T04:32:19;46.50;;;29.03;;
2558;SDS011;1289;53.488;10.006;2024-03-02T04:34:46;40.70;;;28.40;;
2558;SDS011;1289;53.488;10.006;2024-03-02T04:37:13;42.17;;;28.20;;
2558;SDS011;1289;53.488;10.006;2024-03-02T04:39:41;49.57;;;31.13;;
2558;SDS011;1289;53.488;10.006;2024-03-02T04:42:11;37.73;;;25.57;;
2558;SDS011;1289;53.488;10.006;2024-03-02T04:44:38;47.30;;;29.00;;
2558;SDS011;1289;53.488;10.006;2024-03-02T04:47:05;37.27;;;28.00;;
2558;SDS011;1289;53.488;10.006;2024-03-02T04:49:32;43.07;;;28.87;;
2558;SDS011;1289;53.488;10.006;2024-03-02T04:51:58;42.20;;;26.90;;
2558;SDS011;1289;53.488;10.006;2024-03-02T04:54:25;50.73;;;28.83;;
2558;SDS011;1289;53.488;10.006;2024-03-02T04:56:53;32.47;;;26.43;;
2558;SDS011;1289;53.488;10.006;2024-03-02T04:59:20;37.50;;;28.13;;
2558;SDS011;1289;53.488;10.006;2024-03-02T05:01:50;39.97;;;28.10;;
2558;SDS011;1289;53.488;10.006;2024-03-02T05:04:17;42.77;;;27.27;;
2558;SDS011;1289;53.488;10.006;2024-03-02T05:06:44;41.57;;;29.40;;
2558;SDS011;1289;53.488;10.006;2024-03-02T05:09:17;40.90;;;27.93;;
2558;SDS011;1289;53.488;10.006;2024-03-02T05:11:43;41.20;;;28.27;;
2558;SDS011;1289;53.488;10.006;2024-03-02T05:14:29;41.23;;;27.83;;
2558;SDS011;1289;53.488;10.006;2024-03-02T05:16:56;40.87;;;29.87;;
2558;SDS011;1289;53.488;10.006;2024-03-02T05:19:22;40.20;;;28.17;;
2558;SDS011;1289;53.488;10.006;2024-03-02T05:21:50;40.30;;;26.20;;
2558;SDS011;1289;53.488;10.006;2024-03-02T05:24:17;39.87;;;26.77;;
2558;SDS011;1289;53.488;10.006;2024-03-02T05:26:44;38.07;;;27.17;;
2558;SDS011;1289;53.488;10.006;2024-03-02T05:29:10;39.00;;;26.50;;
2558;SDS011;1289;53.488;10.006;2024-03-02T05:31:39;39.20;;;26.63;;
2558;SDS011;1289;53.488;10.006;2024-03-02T05:34:05;36.37;;;25.70;;
2558;SDS011;1289;53.488;10.006;2024-03-02T05:36:32;36.60;;;26.00;;
2558;SDS011;1289;53.488;10.006;2024-03-02T05:38:59;42.07;;;28.70;;
2558;SDS011;1289;53.488;10.006;2024-03-02T05:41:26;36.83;;;26.93;;
2558;SDS011;1289;53.488;10.006;2024-03-02T05:43:53;41.00;;;27.13;;
2558;SDS011;1289;53.488;10.006;2024-03-02T05:46:20;38.43;;;27.87;;
2558;SDS011;1289;53.488;10.006;2024-03-02T05:48:48;39.40;;;26.57;;
2558;SDS011;1289;53.488;10.006;2024-03-02T05:51:15;42.10;;;28.43;;
2558;SDS011;1289;53.488;10.006;2024-03-02T05:53:42;40.93;;;27.13;;
2558;SDS011;1289;53.488;10.006;2024-03-02T05:56:09;37.60;;;28.00;;
2558;SDS011;1289;53.488;10.006;2024-03-02T05:58:37;41.47;;;27.43;;
2558;SDS011;1289;53.488;10.006;2024-03-02T06:01:14;37.33;;;24.90;;
2558;SDS011;1289;53.488;10.006;2024-03-02T06:03:43;36.37;;;26.10;;
2558;SDS011;1289;53.488;10.006;2024-03-02T06:06:11;37.43;;;26.47;;
2558;SDS011;1289;53.488;10.006;2024-03-02T06:08:37;38.03;;;27.13;;
2558;SDS011;1289;53.488;10.006;2024-03-02T06:11:04;38.90;;;26.63;;
2558;SDS011;1289;53.488;10.006;2024-03-02T06:13:31;36.03;;;25.90;;
2558;SDS011;1289;53.488;10.006;2024-03-02T06:15:57;38.37;;;27.43;;
2558;SDS011;1289;53.488;10.006;2024-03-02T06:18:24;36.17;;;26.10;;
2558;SDS011;1289;53.488;10.006;2024-03-02T06:20:52;38.70;;;26.23;;
2558;SDS011;1289;53.488;10.006;2024-03-02T06:23:20;66.03;;;27.47;;
2558;SDS011;1289;53.488;10.006;2024-03-02T06:25:47;41.93;;;26.93;;
2558;SDS011;1289;53.488;10.006;2024-03-02T06:28:14;43.20;;;28.07;;
2558;SDS011;1289;53.488;10.006;2024-03-02T06:30:40;37.13;;;26.23;;
2558;SDS011;1289;53.488;10.006;2024-03-02T06:33:07;39.17;;;28.03;;
2558;SDS011;1289;53.488;10.006;2024-03-02T06:35:34;34.53;;;24.40;;
2558;SDS011;1289;53.488;10.006;2024-03-02T06:38:01;37.00;;;25.20;;
2558;SDS011;1289;53.488;10.006;2024-03-02T06:40:29;33.50;;;25.80;;
2558;SDS011;1289;53.488;10.006;2024-03-02T06:42:56;37.77;;;26.37;;
2558;SDS011;1289;53.488;10.006;2024-03-02T06:45:23;39.57;;;26.17;;
2558;SDS011;1289;53.488;10.006;2024-03-02T06:47:50;41.10;;;29.20;;
2558;SDS011;1289;53.488;10.006;2024-03-02T06:50:17;40.97;;;25.47;;
2558;SDS011;1289;53.488;10.006;2024-03-02T06:52:43;36.00;;;26.83;;
2558;SDS011;1289;53.488;10.006;2024-03-02T06:55:10;42.77;;;26.97;;
2558;SDS011;1289;53.488;10.006;2024-03-02T06:57:39;38.70;;;26.70;;
2558;SDS011;1289;53.488;10.006;2024-03-02T07:00:06;39.60;;;27.30;;
2558;SDS011;1289;53.488;10.006;2024-03-02T07:02:34;37.37;;;24.57;;
2558;SDS011;1289;53.488;10.006;2024-03-02T07:05:01;38.53;;;27.33;;
2558;SDS011;1289;53.488;10.006;2024-03-02T07:07:29;36.90;;;25.03;;
2558;SDS011;1289;53.488;10.006;2024-03-02T07:09:57;38.20;;;27.23;;
2558;SDS011;1289;53.488;10.006;2024-03-02T07:12:23;35.97;;;27.63;;
2558;SDS011;1289;53.488;10.006;2024-03-02T07:14:51;38.93;;;27.73;;
2558;SDS011;1289;53.488;10.006;2024-03-02T07:17:36;36.20;;;25.20;;
2558;SDS011;1289;53.488;10.006;2024-03-02T07:20:03;36.33;;;26.43;;
2558;SDS011;1289;53.488;10.006;2024-03-02T07:22:31;34.93;;;25.97;;
2558;SDS011;1289;53.488;10.006;2024-03-02T07:24:58;36.97;;;25.17;;
2558;SDS011;1289;53.488;10.006;2024-03-02T07:27:25;39.80;;;26.77;;
2558;SDS011;1289;53.488;10.006;2024-03-02T07:29:53;32.87;;;24.83;;
2558;SDS011;1289;53.488;10.006;2024-03-02T07:32:20;34.93;;;24.00;;
2558;SDS011;1289;53.488;10.006;2024-03-02T07:34:47;36.47;;;24.90;;
2558;SDS011;1289;53.488;10.006;2024-03-02T07:37:16;34.87;;;24.57;;
2558;SDS011;1289;53.488;10.006;2024-03-02T07:39:43;35.27;;;24.87;;
2558;SDS011;1289;53.488;10.006;2024-03-02T07:42:10;35.80;;;25.70;;
2558;SDS011;1289;53.488;10.006;2024-03-02T07:44:37;37.00;;;23.77;;
2558;SDS011;1289;53.488;10.006;2024-03-02T07:47:05;30.23;;;23.57;;
2558;SDS011;1289;53.488;10.006;2024-03-02T07:49:33;39.20;;;24.50;;
2558;SDS011;1289;53.488;10.006;2024-03-02T07:52:00;28.30;;;22.23;;
2558;SDS011;1289;53.488;10.006;2024-03-02T07:54:26;30.77;;;22.80;;
2558;SDS011;1289;53.488;10.006;2024-03-02T07:56:58;32.73;;;25.17;;
2558;SDS011;1289;53.488;10.006;2024-03-02T07:59:26;32.83;;;23.67;;
2558;SDS011;1289;53.488;10.006;2024-03-02T08:01:52;34.80;;;25.37;;
2558;SDS011;1289;53.488;10.006;2024-03-02T08:04:22;31.70;;;23.60;;
2558;SDS011;1289;53.488;10.006;2024-03-02T08:06:49;36.70;;;24.40;;
2558;SDS011;1289;53.488;10.006;2024-03-02T08:09:17;33.33;;;23.80;;
2558;SDS011;1289;53.488;10.006;2024-03-02T08:11:43;32.47;;;23.50;;
2558;SDS011;1289;53.488;10.006;2024-03-02T08:14:10;30.70;;;22.50;;
2558;SDS011;1289;53.488;10.006;2024-03-02T08:16:37;28.13;;;21.23;;
2558;SDS011;1289;53.488;10.006;2024-03-02T08:19:03;28.70;;;23.17;;
2558;SDS011;1289;53.488;10.006;2024-03-02T08:21:31;34.73;;;24.27;;
2558;SDS011;1289;53.488;10.006;2024-03-02T08:24:00;30.77;;;22.93;;
2558;SDS011;1289;53.488;10.006;2024-03-02T08:26:28;29.00;;;20.93;;
2558;SDS011;1289;53.488;10.006;2024-03-02T08:28:56;34.33;;;23.90;;
2558;SDS011;1289;53.488;10.006;2024-03-02T08:31:23;31.07;;;21.97;;
2558;SDS011;1289;53.488;10.006;2024-03-02T08:33:50;27.93;;;21.17;;
2558;SDS011;1289;53.488;10.006;2024-03-02T08:36:17;30.33;;;22.80;;
2558;SDS011;1289;53.488;10.006;2024-03-02T08:38:46;29.77;;;21.77;;
2558;SDS011;1289;53.488;10.006;2024-03-02T08:41:13;29.10;;;22.70;;
2558;SDS011;1289;53.488;10.006;2024-03-02T08:43:41;29.53;;;21.43;;
2558;SDS011;1289;53.488;10.006;2024-03-02T08:46:08;29.10;;;22.30;;
2558;SDS011;1289;53.488;10.006;2024-03-02T08:48:35;29.53;;;21.27;;
2558;SDS011;1289;53.488;10.006;2024-03-02T08:51:02;27.90;;;22.20;;
2558;SDS011;1289;53.488;10.006;2024-03-02T08:53:31;24.70;;;20.70;;
2558;SDS011;1289;53.488;10.006;2024-03-02T08:55:59;28.13;;;20.17;;
2558;SDS011;1289;53.488;10.006;2024-03-02T08:58:26;29.23;;;21.63;;
2558;SDS011;1289;53.488;10.006;2024-03-02T09:00:52;29.07;;;22.03;;
2558;SDS011;1289;53.488;10.006;2024-03-02T09:03:19;28.63;;;23.03;;
2558;SDS011;1289;53.488;10.006;2024-03-02T09:05:46;27.00;;;20.47;;
2558;SDS011;1289;53.488;10.006;2024-03-02T09:08:13;23.90;;;19.80;;
2558;SDS011;1289;53.488;10.006;2024-03-02T09:10:40;22.17;;;18.70;;
2558;SDS011;1289;53.488;10.006;2024-03-02T09:13:08;22.77;;;19.17;;
2558;SDS011;1289;53.488;10.006;2024-03-02T09:15:35;23.50;;;18.17;;
2558;SDS011;1289;53.488;10.006;2024-03-02T09:18:04;29.03;;;20.37;;
2558;SDS011;1289;53.488;10.006;2024-03-02T09:20:32;24.50;;;19.07;;
2558;SDS011;1289;53.488;10.006;2024-03-02T09:22:58;26.73;;;17.77;;
2558;SDS011;1289;53.488;10.006;2024-03-02T09:25:25;23.60;;;19.30;;
2558;SDS011;1289;53.488;10.006;2024-03-02T09:27:51;22.40;;;17.30;;
2558;SDS011;1289;53.488;10.006;2024-03-02T09:30:19;24.77;;;19.10;;
2558;SDS011;1289;53.488;10.006;2024-03-02T09:32:46;21.83;;;18.97;;
2558;SDS011;1289;53.488;10.006;2024-03-02T09:35:13;22.43;;;19.20;;
2558;SDS011;1289;53.488;10.006;2024-03-02T09:37:40;22.77;;;18.00;;
2558;SDS011;1289;53.488;10.006;2024-03-02T09:40:07;21.50;;;16.93;;
2558;SDS011;1289;53.488;10.006;2024-03-02T09:42:36;22.60;;;17.17;;
2558;SDS011;1289;53.488;10.006;2024-03-02T09:45:04;23.80;;;17.60;;
2558;SDS011;1289;53.488;10.006;2024-03-02T09:47:33;18.93;;;16.60;;
2558;SDS011;1289;53.488;10.006;2024-03-02T09:50:00;21.17;;;18.03;;
2558;SDS011;1289;53.488;10.006;2024-03-02T09:52:26;18.97;;;16.13;;
2558;SDS011;1289;53.488;10.006;2024-03-02T09:54:53;21.30;;;15.60;;
2558;SDS011;1289;53.488;10.006;2024-03-02T09:57:20;17.80;;;15.70;;
2558;SDS011;1289;53.488;10.006;2024-03-02T09:59:47;18.23;;;15.87;;
2558;SDS011;1289;53.488;10.006;2024-03-02T10:02:13;18.80;;;15.23;;
2558;SDS011;1289;53.488;10.006;2024-03-02T10:04:42;18.07;;;15.10;;
2558;SDS011;1289;53.488;10.006;2024-03-02T10:07:10;17.13;;;14.00;;
2558;SDS011;1289;53.488;10.006;2024-03-02T10:09:37;17.70;;;14.20;;
2558;SDS011;1289;53.488;10.006;2024-03-02T10:12:04;18.20;;;14.30;;
2558;SDS011;1289;53.488;10.006;2024-03-02T10:14:32;15.23;;;13.60;;
2558;SDS011;1289;53.488;10.006;2024-03-02T10:17:01;15.73;;;12.83;;
2558;SDS011;1289;53.488;10.006;2024-03-02T10:19:29;13.63;;;11.30;;
2558;SDS011;1289;53.488;10.006;2024-03-02T10:21:59;12.37;;;11.00;;
2558;SDS011;1289;53.488;10.006;2024-03-02T10:24:26;12.00;;;10.80;;
2558;SDS011;1289;53.488;10.006;2024-03-02T10:26:52;11.30;;;10.20;;
2558;SDS011;1289;53.488;10.006;2024-03-02T10:29:21;13.30;;;10.90;;
2558;SDS011;1289;53.488;10.006;2024-03-02T10:31:48;14.43;;;11.37;;
2558;SDS011;1289;53.488;10.006;2024-03-02T10:34:15;12.60;;;10.53;;
2558;SDS011;1289;53.488;10.006;2024-03-02T10:36:42;11.40;;;9.40;;
2558;SDS011;1289;53.488;10.006;2024-03-02T10:39:12;12.70;;;11.20;;
2558;SDS011;1289;53.488;10.006;2024-03-02T10:41:40;11.93;;;10.60;;
2558;SDS011;1289;53.488;10.006;2024-03-02T10:44:07;12.30;;;10.80;;
2558;SDS011;1289;53.488;10.006;2024-03-02T10:46:35;14.97;;;10.33;;
2558;SDS011;1289;53.488;10.006;2024-03-02T10:49:03;11.37;;;9.90;;
2558;SDS011;1289;53.488;10.006;2024-03-02T10:51:31;11.40;;;8.97;;
2558;SDS011;1289;53.488;10.006;2024-03-02T10:53:58;12.70;;;10.93;;
2558;SDS011;1289;53.488;10.006;2024-03-02T10:56:29;13.50;;;10.87;;
2558;SDS011;1289;53.488;10.006;2024-03-02T10:58:59;11.47;;;10.00;;
2558;SDS011;1289;53.488;10.006;2024-03-02T11:01:29;12.47;;;9.63;;
2558;SDS011;1289;53.488;10.006;2024-03-02T11:03:58;10.90;;;9.80;;
2558;SDS011;1289;53.488;10.006;2024-03-02T11:06:25;11.07;;;9.27;;
2558;SDS011;1289;53.488;10.006;2024-03-02T11:08:53;11.97;;;10.00;;
2558;SDS011;1289;53.488;10.006;2024-03-02T11:11:27;13.43;;;11.03;;
2558;SDS011;1289;53.488;10.006;2024-03-02T11:13:56;13.10;;;10.33;;
2558;SDS011;1289;53.488;10.006;2024-03-02T11:16:27;11.13;;;9.30;;
2558;SDS011;1289;53.488;10.006;2024-03-02T11:19:00;13.27;;;11.60;;
2558;SDS011;1289;53.488;10.006;2024-03-02T11:21:28;12.40;;;10.77;;
2558;SDS011;1289;53.488;10.006;2024-03-02T11:23:56;12.67;;;11.40;;
2558;SDS011;1289;53.488;10.006;2024-03-02T11:26:23;12.93;;;11.60;;
2558;SDS011;1289;53.488;10.006;2024-03-02T11:28:51;12.30;;;11.10;;
2558;SDS011;1289;53.488;10.006;2024-03-02T11:31:18;13.03;;;10.53;;
2558;SDS011;1289;53.488;10.006;2024-03-02T11:33:44;10.73;;;9.53;;
2558;SDS011;1289;53.488;10.006;2024-03-02T11:36:12;12.73;;;11.40;;
2558;SDS011;1289;53.488;10.006;2024-03-02T11:38:39;12.80;;;10.07;;
2558;SDS011;1289;53.488;10.006;2024-03-02T11:41:09;12.73;;;10.37;;
2558;SDS011;1289;53.488;10.006;2024-03-02T11:43:37;12.00;;;9.40;;
2558;SDS011;1289;53.488;10.006;2024-03-02T11:46:06;12.27;;;10.67;;
2558;SDS011;1289;53.488;10.006;2024-03-02T11:48:34;13.70;;;9.97;;
2558;SDS011;1289;53.488;10.006;2024-03-02T11:51:01;11.70;;;9.60;;
2558;SDS011;1289;53.488;10.006;2024-03-02T11:53:28;9.90;;;8.90;;
2558;SDS011;1289;53.488;10.006;2024-03-02T11:55:57;12.90;;;9.60;;
2558;SDS011;1289;53.488;10.006;2024-03-02T11:58:24;10.30;;;9.20;;
2558;SDS011;1289;53.488;10.006;2024-03-02T12:00:52;10.50;;;9.40;;
2558;SDS011;1289;53.488;10.006;2024-03-02T12:03:22;11.23;;;10.00;;
2558;SDS011;1289;53.488;10.006;2024-03-02T12:05:50;10.90;;;9.80;;
2558;SDS011;1289;53.488;10.006;2024-03-02T12:08:17;10.57;;;9.50;;
2558;SDS011;1289;53.488;10.006;2024-03-02T12:10:44;11.13;;;9.80;;
2558;SDS011;1289;53.488;10.006;2024-03-02T12:13:22;11.87;;;9.83;;
2558;SDS011;1289;53.488;10.006;2024-03-02T12:15:52;10.37;;;9.27;;
2558;SDS011;1289;53.488;10.006;2024-03-02T12:18:19;9.80;;;8.83;;
2558;SDS011;1289;53.488;10.006;2024-03-02T12:20:48;9.93;;;8.37;;
2558;SDS011;1289;53.488;10.006;2024-03-02T12:23:15;10.27;;;9.17;;
2558;SDS011;1289;53.488;10.006;2024-03-02T12:25:42;10.60;;;8.83;;
2558;SDS011;1289;53.488;10.006;2024-03-02T12:28:09;10.43;;;8.33;;
2558;SDS011;1289;53.488;10.006;2024-03-02T12:30:36;10.80;;;8.30;;
2558;SDS011;1289;53.488;10.006;2024-03-02T12:33:03;7.77;;;7.00;;
2558;SDS011;1289;53.488;10.006;2024-03-02T12:35:31;10.07;;;8.67;;
2558;SDS011;1289;53.488;10.006;2024-03-02T12:37:58;8.23;;;7.43;;
2558;SDS011;1289;53.488;10.006;2024-03-02T12:40:24;8.20;;;7.30;;
2558;SDS011;1289;53.488;10.006;2024-03-02T12:42:52;11.30;;;8.57;;
2558;SDS011;1289;53.488;10.006;2024-03-02T12:45:19;8.67;;;7.93;;
2558;SDS011;1289;53.488;10.006;2024-03-02T12:47:48;8.40;;;7.60;;
2558;SDS011;1289;53.488;10.006;2024-03-02T12:50:16;10.00;;;8.20;;
2558;SDS011;1289;53.488;10.006;2024-03-02T12:52:44;8.50;;;7.70;;
2558;SDS011;1289;53.488;10.006;2024-03-02T12:55:17;10.27;;;8.67;;
2558;SDS011;1289;53.488;10.006;2024-03-02T12:57:44;10.13;;;8.90;;
2558;SDS011;1289;53.488;10.006;2024-03-02T13:00:10;13.77;;;12.03;;
2558;SDS011;1289;53.488;10.006;2024-03-02T13:02:40;13.53;;;11.50;;
2558;SDS011;1289;53.488;10.006;2024-03-02T13:05:07;12.57;;;10.10;;
2558;SDS011;1289;53.488;10.006;2024-03-02T13:07:36;11.30;;;10.20;;
2558;SDS011;1289;53.488;10.006;2024-03-02T13:10:04;10.43;;;9.33;;
2558;SDS011;1289;53.488;10.006;2024-03-02T13:12:32;12.63;;;10.40;;
2558;SDS011;1289;53.488;10.006;2024-03-02T13:14:59;9.67;;;8.70;;
2558;SDS011;1289;53.488;10.006;2024-03-02T13:17:28;8.53;;;7.60;;
2558;SDS011;1289;53.488;10.006;2024-03-02T13:19:55;9.67;;;8.47;;
2558;SDS011;1289;53.488;10.006;2024-03-02T13:22:23;8.60;;;7.80;;
2558;SDS011;1289;53.488;10.006;2024-03-02T13:24:49;11.03;;;8.30;;
2558;SDS011;1289;53.488;10.006;2024-03-02T13:27:18;10.60;;;9.50;;
2558;SDS011;1289;53.488;10.006;2024-03-02T13:29:45;10.50;;;9.40;;
2558;SDS011;1289;53.488;10.006;2024-03-02T13:32:13;11.60;;;10.40;;
2558;SDS011;1289;53.488;10.006;2024-03-02T13:34:40;13.20;;;10.63;;
2558;SDS011;1289;53.488;10.006;2024-03-02T13:37:06;12.40;;;10.70;;
2558;SDS011;1289;53.488;10.006;2024-03-02T13:39:33;12.70;;;11.50;;
2558;SDS011;1289;53.488;10.006;2024-03-02T13:42:05;11.80;;;10.50;;
2558;SDS011;1289;53.488;10.006;2024-03-02T13:44:35;11.60;;;10.37;;
2558;SDS011;1289;53.488;10.006;2024-03-02T13:47:05;11.70;;;9.97;;
2558;SDS011;1289;53.488;10.006;2024-03-02T13:49:32;13.40;;;12.00;;
2558;SDS011;1289;53.488;10.006;2024-03-02T13:52:03;13.23;;;10.47;;
2558;SDS011;1289;53.488;10.006;2024-03-02T13:54:36;11.77;;;9.67;;
2558;SDS011;1289;53.488;10.006;2024-03-02T13:57:04;13.77;;;9.90;;
2558;SDS011;1289;53.488;10.006;2024-03-02T13:59:31;11.53;;;10.37;;
2558;SDS011;1289;53.488;10.006;2024-03-02T14:01:59;12.10;;;10.50;;
2558;SDS011;1289;53.488;10.006;2024-03-02T14:04:26;11.50;;;10.30;;
2558;SDS011;1289;53.488;10.006;2024-03-02T14:06:53;10.80;;;9.70;;
2558;SDS011;1289;53.488;10.006;2024-03-02T14:09:21;12.00;;;10.13;;
2558;SDS011;1289;53.488;10.006;2024-03-02T14:11:49;12.87;;;9.17;;
2558;SDS011;1289;53.488;10.006;2024-03-02T14:14:16;9.67;;;8.77;;
2558;SDS011;1289;53.488;10.006;2024-03-02T14:16:42;8.93;;;8.00;;
2558;SDS011;1289;53.488;10.006;2024-03-02T14:19:12;9.60;;;8.60;;
2558;SDS011;1289;53.488;10.006;2024-03-02T14:21:38;8.97;;;7.93;;
2558;SDS011;1289;53.488;10.006;2024-03-02T14:24:05;8.70;;;7.90;;
2558;SDS011;1289;53.488;10.006;2024-03-02T14:26:35;9.30;;;8.40;;
2558;SDS011;1289;53.488;10.006;2024-03-02T14:29:01;8.57;;;7.63;;
2558;SDS011;1289;53.488;10.006;2024-03-02T14:31:28;9.37;;;8.47;;
2558;SDS011;1289;53.488;10.006;2024-03-02T14:33:56;7.93;;;6.93;;
2558;SDS011;1289;53.488;10.006;2024-03-02T14:36:24;8.00;;;7.30;;
2558;SDS011;1289;53.488;10.006;2024-03-02T14:38:52;11.27;;;8.40;;
2558;SDS011;1289;53.488;10.006;2024-03-02T14:41:19;10.10;;;8.13;;